sensor_id;sensor_type;location;lat;lon;timestamp;P1;durP1;ratioP1;P2;durP2;ratioP2
43580;SDS011;29175;51.030;4.606;2022-10-16T00:03:41;12.20;;;2.28;;
43580;SDS011;29175;51.030;4.606;2022-10-16T00:06:09;3.88;;;2.05;;
43580;SDS011;29175;51.030;4.606;2022-10-16T00:08:35;3.90;;;1.95;;
43580;SDS011;29175;51.030;4.606;2022-10-16T00:11:06;7.40;;;2.40;;
43580;SDS011;29175;51.030;4.606;2022-10-16T00:13:35;13.40;;;2.20;;
43580;SDS011;29175;51.030;4.606;2022-10-16T00:16:02;5.63;;;2.08;;
43580;SDS011;29175;51.030;4.606;2022-10-16T00:18:29;4.30;;;1.92;;
43580;SDS011;29175;51.030;4.606;2022-10-16T00:20:55;7.93;;;2.10;;
43580;SDS011;29175;51.030;4.606;2022-10-16T00:23:28;3.97;;;1.77;;
43580;SDS011;29175;51.030;4.606;2022-10-16T00:25:54;3.17;;;1.70;;
43580;SDS011;29175;51.030;4.606;2022-10-16T00:28:21;6.07;;;1.75;;
43580;SDS011;29175;51.030;4.606;2022-10-16T00:30:47;2.83;;;1.58;;
43580;SDS011;29175;51.030;4.606;2022-10-16T00:33:13;3.60;;;1.90;;
43580;SDS011;29175;51.030;4.606;2022-10-16T00:35:38;6.75;;;1.85;;
43580;SDS011;29175;51.030;4.606;2022-10-16T00:38:04;5.50;;;1.90;;
43580;SDS011;29175;51.030;4.606;2022-10-16T00:40:30;1.70;;;1.40;;
43580;SDS011;29175;51.030;4.606;2022-10-16T00:42:56;3.58;;;1.83;;
43580;SDS011;29175;51.030;4.606;2022-10-16T00:45:21;3.72;;;1.83;;
43580;SDS011;29175;51.030;4.606;2022-10-16T00:47:47;6.28;;;2.10;;
43580;SDS011;29175;51.030;4.606;2022-10-16T00:50:24;2.75;;;1.70;;
43580;SDS011;29175;51.030;4.606;2022-10-16T00:52:55;5.85;;;2.00;;
43580;SDS011;29175;51.030;4.606;2022-10-16T00:55:22;12.05;;;1.95;;
43580;SDS011;29175;51.030;4.606;2022-10-16T00:57:48;6.78;;;1.92;;
43580;SDS011;29175;51.030;4.606;2022-10-16T01:00:20;5.25;;;1.67;;
43580;SDS011;29175;51.030;4.606;2022-10-16T01:03:00;3.25;;;1.60;;
43580;SDS011;29175;51.030;4.606;2022-10-16T01:05:30;5.18;;;1.70;;
43580;SDS011;29175;51.030;4.606;2022-10-16T01:08:18;9.68;;;1.98;;
43580;SDS011;29175;51.030;4.606;2022-10-16T01:11:48;4.22;;;1.70;;
43580;SDS011;29175;51.030;4.606;2022-10-16T01:13:53;2.83;;;1.48;;
43580;SDS011;29175;51.030;4.606;2022-10-16T01:16:44;6.07;;;1.50;;
43580;SDS011;29175;51.030;4.606;2022-10-16T01:19:16;5.43;;;1.90;;
43580;SDS011;29175;51.030;4.606;2022-10-16T01:22:05;7.82;;;1.80;;
43580;SDS011;29175;51.030;4.606;2022-10-16T01:24:40;5.43;;;1.88;;
43580;SDS011;29175;51.030;4.606;2022-10-16T01:27:11;6.30;;;1.70;;
43580;SDS011;29175;51.030;4.606;2022-10-16T01:29:54;3.28;;;1.50;;
43580;SDS011;29175;51.030;4.606;2022-10-16T01:34:56;7.63;;;1.88;;
43580;SDS011;29175;51.030;4.606;2022-10-16T01:37:38;4.85;;;1.75;;
43580;SDS011;29175;51.030;4.606;2022-10-16T01:40:10;2.80;;;1.73;;
43580;SDS011;29175;51.030;4.606;2022-10-16T01:42:40;4.18;;;1.55;;
43580;SDS011;29175;51.030;4.606;2022-10-16T01:45:10;2.30;;;1.40;;
43580;SDS011;29175;51.030;4.606;2022-10-16T01:47:38;4.82;;;1.73;;
43580;SDS011;29175;51.030;4.606;2022-10-16T01:50:06;5.38;;;1.55;;
43580;SDS011;29175;51.030;4.606;2022-10-16T01:52:39;8.18;;;2.05;;
43580;SDS011;29175;51.030;4.606;2022-10-16T01:55:08;9.50;;;1.85;;
43580;SDS011;29175;51.030;4.606;2022-10-16T01:57:38;8.80;;;1.98;;
43580;SDS011;29175;51.030;4.606;2022-10-16T02:00:09;5.63;;;1.45;;
43580;SDS011;29175;51.030;4.606;2022-10-16T02:02:38;4.72;;;1.85;;
43580;SDS011;29175;51.030;4.606;2022-10-16T02:07:44;5.30;;;1.77;;
43580;SDS011;29175;51.030;4.606;2022-10-16T02:10:10;4.70;;;1.75;;
43580;SDS011;29175;51.030;4.606;2022-10-16T02:12:36;6.85;;;2.17;;
43580;SDS011;29175;51.030;4.606;2022-10-16T02:15:05;6.15;;;2.05;;
43580;SDS011;29175;51.030;4.606;2022-10-16T02:17:31;6.80;;;1.80;;
43580;SDS011;29175;51.030;4.606;2022-10-16T02:19:57;7.10;;;1.75;;
43580;SDS011;29175;51.030;4.606;2022-10-16T02:24:54;15.65;;;2.28;;
43580;SDS011;29175;51.030;4.606;2022-10-16T02:32:55;8.80;;;1.90;;
43580;SDS011;29175;51.030;4.606;2022-10-16T02:35:23;3.67;;;1.75;;
43580;SDS011;29175;51.030;4.606;2022-10-16T02:37:50;8.90;;;2.03;;
43580;SDS011;29175;51.030;4.606;2022-10-16T02:40:17;6.15;;;2.25;;
43580;SDS011;29175;51.030;4.606;2022-10-16T02:42:44;4.38;;;1.85;;
43580;SDS011;29175;51.030;4.606;2022-10-16T02:45:10;7.18;;;1.80;;
43580;SDS011;29175;51.030;4.606;2022-10-16T02:47:37;3.67;;;1.90;;
43580;SDS011;29175;51.030;4.606;2022-10-16T02:50:04;2.92;;;1.50;;
43580;SDS011;29175;51.030;4.606;2022-10-16T02:52:30;3.85;;;1.85;;
43580;SDS011;29175;51.030;4.606;2022-10-16T02:54:55;4.68;;;1.83;;
43580;SDS011;29175;51.030;4.606;2022-10-16T02:57:21;5.60;;;1.98;;
43580;SDS011;29175;51.030;4.606;2022-10-16T02:59:47;4.85;;;1.95;;
43580;SDS011;29175;51.030;4.606;2022-10-16T03:02:12;6.35;;;1.90;;
43580;SDS011;29175;51.030;4.606;2022-10-16T03:04:38;5.47;;;1.73;;
43580;SDS011;29175;51.030;4.606;2022-10-16T03:07:05;3.45;;;1.90;;
43580;SDS011;29175;51.030;4.606;2022-10-16T03:09:31;2.90;;;1.70;;
43580;SDS011;29175;51.030;4.606;2022-10-16T03:11:57;13.40;;;2.30;;
43580;SDS011;29175;51.030;4.606;2022-10-16T03:14:22;5.20;;;1.83;;
43580;SDS011;29175;51.030;4.606;2022-10-16T03:16:48;3.03;;;1.65;;
43580;SDS011;29175;51.030;4.606;2022-10-16T03:19:15;2.90;;;1.83;;
43580;SDS011;29175;51.030;4.606;2022-10-16T03:21:41;7.15;;;1.83;;
43580;SDS011;29175;51.030;4.606;2022-10-16T03:24:08;4.20;;;1.77;;
43580;SDS011;29175;51.030;4.606;2022-10-16T03:26:34;2.95;;;1.50;;
43580;SDS011;29175;51.030;4.606;2022-10-16T03:28:59;5.03;;;1.83;;
43580;SDS011;29175;51.030;4.606;2022-10-16T03:31:25;6.38;;;1.90;;
43580;SDS011;29175;51.030;4.606;2022-10-16T03:33:51;4.80;;;1.73;;
43580;SDS011;29175;51.030;4.606;2022-10-16T03:36:17;5.95;;;1.65;;
43580;SDS011;29175;51.030;4.606;2022-10-16T03:38:42;5.30;;;2.30;;
43580;SDS011;29175;51.030;4.606;2022-10-16T03:41:08;5.82;;;2.08;;
43580;SDS011;29175;51.030;4.606;2022-10-16T03:43:34;7.38;;;2.03;;
43580;SDS011;29175;51.030;4.606;2022-10-16T03:45:59;4.78;;;1.80;;
43580;SDS011;29175;51.030;4.606;2022-10-16T03:48:25;5.93;;;1.88;;
43580;SDS011;29175;51.030;4.606;2022-10-16T03:50:51;7.43;;;2.20;;
43580;SDS011;29175;51.030;4.606;2022-10-16T03:53:16;2.60;;;1.77;;
43580;SDS011;29175;51.030;4.606;2022-10-16T03:55:43;6.72;;;2.25;;
43580;SDS011;29175;51.030;4.606;2022-10-16T03:58:09;3.85;;;1.88;;
43580;SDS011;29175;51.030;4.606;2022-10-16T04:00:36;4.97;;;2.30;;
43580;SDS011;29175;51.030;4.606;2022-10-16T04:03:06;2.83;;;1.95;;
43580;SDS011;29175;51.030;4.606;2022-10-16T04:05:32;6.75;;;2.00;;
43580;SDS011;29175;51.030;4.606;2022-10-16T04:07:57;4.70;;;1.70;;
43580;SDS011;29175;51.030;4.606;2022-10-16T04:10:23;4.85;;;1.80;;
43580;SDS011;29175;51.030;4.606;2022-10-16T04:12:48;5.50;;;1.95;;
43580;SDS011;29175;51.030;4.606;2022-10-16T04:15:14;8.88;;;2.30;;
43580;SDS011;29175;51.030;4.606;2022-10-16T04:17:40;4.53;;;2.03;;
43580;SDS011;29175;51.030;4.606;2022-10-16T04:20:06;8.27;;;2.50;;
43580;SDS011;29175;51.030;4.606;2022-10-16T04:22:32;6.97;;;2.10;;
43580;SDS011;29175;51.030;4.606;2022-10-16T04:24:57;4.93;;;2.03;;
43580;SDS011;29175;51.030;4.606;2022-10-16T04:27:23;7.03;;;1.90;;
43580;SDS011;29175;51.030;4.606;2022-10-16T04:29:49;5.93;;;2.10;;
43580;SDS011;29175;51.030;4.606;2022-10-16T04:32:14;4.53;;;1.98;;
43580;SDS011;29175;51.030;4.606;2022-10-16T04:34:40;5.05;;;2.00;;
43580;SDS011;29175;51.030;4.606;2022-10-16T04:37:06;11.32;;;2.10;;
43580;SDS011;29175;51.030;4.606;2022-10-16T04:39:32;2.80;;;1.80;;
43580;SDS011;29175;51.030;4.606;2022-10-16T04:41:58;5.63;;;2.40;;
43580;SDS011;29175;51.030;4.606;2022-10-16T04:44:24;7.15;;;2.10;;
43580;SDS011;29175;51.030;4.606;2022-10-16T04:46:50;5.53;;;1.90;;
43580;SDS011;29175;51.030;4.606;2022-10-16T04:49:16;4.63;;;1.73;;
43580;SDS011;29175;51.030;4.606;2022-10-16T04:51:42;7.13;;;2.05;;
43580;SDS011;29175;51.030;4.606;2022-10-16T04:54:08;7.75;;;2.22;;
43580;SDS011;29175;51.030;4.606;2022-10-16T04:56:34;5.38;;;1.83;;
43580;SDS011;29175;51.030;4.606;2022-10-16T04:59:05;5.40;;;1.73;;
43580;SDS011;29175;51.030;4.606;2022-10-16T05:01:31;3.50;;;1.90;;
43580;SDS011;29175;51.030;4.606;2022-10-16T05:03:56;4.82;;;2.10;;
43580;SDS011;29175;51.030;4.606;2022-10-16T05:06:23;5.65;;;2.00;;
43580;SDS011;29175;51.030;4.606;2022-10-16T05:08:48;10.32;;;2.30;;
43580;SDS011;29175;51.030;4.606;2022-10-16T05:11:14;8.90;;;2.10;;
43580;SDS011;29175;51.030;4.606;2022-10-16T05:13:40;7.60;;;2.15;;
43580;SDS011;29175;51.030;4.606;2022-10-16T05:16:06;6.07;;;2.40;;
43580;SDS011;29175;51.030;4.606;2022-10-16T05:18:31;9.13;;;2.38;;
43580;SDS011;29175;51.030;4.606;2022-10-16T05:20:57;6.00;;;2.13;;
43580;SDS011;29175;51.030;4.606;2022-10-16T05:23:24;11.38;;;2.55;;
43580;SDS011;29175;51.030;4.606;2022-10-16T05:25:53;4.53;;;2.50;;
43580;SDS011;29175;51.030;4.606;2022-10-16T05:28:24;5.43;;;2.03;;
43580;SDS011;29175;51.030;4.606;2022-10-16T05:30:50;8.88;;;2.15;;
43580;SDS011;29175;51.030;4.606;2022-10-16T05:33:19;4.82;;;2.35;;
43580;SDS011;29175;51.030;4.606;2022-10-16T05:35:46;9.65;;;2.10;;
43580;SDS011;29175;51.030;4.606;2022-10-16T05:38:11;4.78;;;2.10;;
43580;SDS011;29175;51.030;4.606;2022-10-16T05:40:37;5.25;;;2.17;;
43580;SDS011;29175;51.030;4.606;2022-10-16T05:43:03;6.30;;;2.20;;
43580;SDS011;29175;51.030;4.606;2022-10-16T05:45:28;5.70;;;2.10;;
43580;SDS011;29175;51.030;4.606;2022-10-16T05:47:54;10.60;;;2.28;;
43580;SDS011;29175;51.030;4.606;2022-10-16T05:50:20;5.30;;;2.05;;
43580;SDS011;29175;51.030;4.606;2022-10-16T05:52:45;6.05;;;2.30;;
43580;SDS011;29175;51.030;4.606;2022-10-16T05:55:11;4.57;;;2.20;;
43580;SDS011;29175;51.030;4.606;2022-10-16T05:57:37;7.28;;;2.28;;
43580;SDS011;29175;51.030;4.606;2022-10-16T06:00:03;7.20;;;2.30;;
43580;SDS011;29175;51.030;4.606;2022-10-16T06:02:29;5.55;;;2.10;;
43580;SDS011;29175;51.030;4.606;2022-10-16T06:04:55;4.47;;;2.15;;
43580;SDS011;29175;51.030;4.606;2022-10-16T06:07:21;8.15;;;2.70;;
43580;SDS011;29175;51.030;4.606;2022-10-16T06:09:48;5.78;;;2.00;;
43580;SDS011;29175;51.030;4.606;2022-10-16T06:12:15;6.75;;;2.80;;
43580;SDS011;29175;51.030;4.606;2022-10-16T06:14:41;9.48;;;2.65;;
43580;SDS011;29175;51.030;4.606;2022-10-16T06:17:06;7.82;;;2.75;;
43580;SDS011;29175;51.030;4.606;2022-10-16T06:19:32;4.95;;;2.28;;
43580;SDS011;29175;51.030;4.606;2022-10-16T06:21:58;6.80;;;2.00;;
43580;SDS011;29175;51.030;4.606;2022-10-16T06:24:24;5.18;;;2.33;;
43580;SDS011;29175;51.030;4.606;2022-10-16T06:26:50;8.95;;;2.55;;
43580;SDS011;29175;51.030;4.606;2022-10-16T06:29:16;8.13;;;2.30;;
43580;SDS011;29175;51.030;4.606;2022-10-16T06:31:41;6.55;;;2.30;;
43580;SDS011;29175;51.030;4.606;2022-10-16T06:34:09;6.32;;;2.78;;
43580;SDS011;29175;51.030;4.606;2022-10-16T06:36:36;5.20;;;2.45;;
43580;SDS011;29175;51.030;4.606;2022-10-16T06:39:03;7.45;;;3.28;;
43580;SDS011;29175;51.030;4.606;2022-10-16T06:41:30;8.98;;;2.70;;
43580;SDS011;29175;51.030;4.606;2022-10-16T06:43:56;7.20;;;2.80;;
43580;SDS011;29175;51.030;4.606;2022-10-16T06:46:23;7.10;;;2.78;;
43580;SDS011;29175;51.030;4.606;2022-10-16T06:48:52;8.52;;;2.40;;
43580;SDS011;29175;51.030;4.606;2022-10-16T06:51:19;7.25;;;2.58;;
43580;SDS011;29175;51.030;4.606;2022-10-16T06:53:47;7.47;;;2.38;;
43580;SDS011;29175;51.030;4.606;2022-10-16T06:56:16;9.75;;;2.63;;
43580;SDS011;29175;51.030;4.606;2022-10-16T06:58:52;5.53;;;2.47;;
43580;SDS011;29175;51.030;4.606;2022-10-16T07:01:19;8.50;;;2.83;;
43580;SDS011;29175;51.030;4.606;2022-10-16T07:03:46;4.18;;;2.20;;
43580;SDS011;29175;51.030;4.606;2022-10-16T07:06:13;8.68;;;2.38;;
43580;SDS011;29175;51.030;4.606;2022-10-16T07:08:42;8.55;;;2.25;;
43580;SDS011;29175;51.030;4.606;2022-10-16T07:11:10;12.02;;;2.60;;
43580;SDS011;29175;51.030;4.606;2022-10-16T07:13:38;5.32;;;2.15;;
43580;SDS011;29175;51.030;4.606;2022-10-16T07:16:10;6.28;;;2.15;;
43580;SDS011;29175;51.030;4.606;2022-10-16T07:18:37;5.40;;;2.25;;
43580;SDS011;29175;51.030;4.606;2022-10-16T07:21:06;6.00;;;2.22;;
43580;SDS011;29175;51.030;4.606;2022-10-16T07:23:35;8.50;;;2.20;;
43580;SDS011;29175;51.030;4.606;2022-10-16T07:26:01;8.63;;;2.63;;
43580;SDS011;29175;51.030;4.606;2022-10-16T07:28:28;5.45;;;2.38;;
43580;SDS011;29175;51.030;4.606;2022-10-16T07:30:59;7.45;;;2.35;;
43580;SDS011;29175;51.030;4.606;2022-10-16T07:33:28;4.97;;;2.13;;
43580;SDS011;29175;51.030;4.606;2022-10-16T07:35:55;6.57;;;2.28;;
43580;SDS011;29175;51.030;4.606;2022-10-16T07:38:21;11.93;;;2.15;;
43580;SDS011;29175;51.030;4.606;2022-10-16T07:40:48;5.95;;;1.92;;
43580;SDS011;29175;51.030;4.606;2022-10-16T07:43:21;6.97;;;2.25;;
43580;SDS011;29175;51.030;4.606;2022-10-16T07:45:47;8.00;;;2.45;;
43580;SDS011;29175;51.030;4.606;2022-10-16T07:48:14;5.85;;;1.98;;
43580;SDS011;29175;51.030;4.606;2022-10-16T07:50:40;10.73;;;2.50;;
43580;SDS011;29175;51.030;4.606;2022-10-16T07:53:06;7.72;;;2.50;;
43580;SDS011;29175;51.030;4.606;2022-10-16T07:55:32;10.95;;;2.75;;
43580;SDS011;29175;51.030;4.606;2022-10-16T07:57:58;8.75;;;2.30;;
43580;SDS011;29175;51.030;4.606;2022-10-16T08:00:25;5.35;;;2.33;;
43580;SDS011;29175;51.030;4.606;2022-10-16T08:02:50;6.60;;;2.42;;
43580;SDS011;29175;51.030;4.606;2022-10-16T08:05:16;5.10;;;2.45;;
43580;SDS011;29175;51.030;4.606;2022-10-16T08:07:42;6.43;;;2.30;;
43580;SDS011;29175;51.030;4.606;2022-10-16T08:10:17;7.10;;;2.08;;
43580;SDS011;29175;51.030;4.606;2022-10-16T08:12:44;5.00;;;2.05;;
43580;SDS011;29175;51.030;4.606;2022-10-16T08:15:10;5.97;;;2.30;;
43580;SDS011;29175;51.030;4.606;2022-10-16T08:17:36;4.55;;;1.85;;
43580;SDS011;29175;51.030;4.606;2022-10-16T08:20:01;2.97;;;1.80;;
43580;SDS011;29175;51.030;4.606;2022-10-16T08:22:27;6.60;;;2.20;;
43580;SDS011;29175;51.030;4.606;2022-10-16T08:24:53;4.20;;;1.75;;
43580;SDS011;29175;51.030;4.606;2022-10-16T08:27:19;3.83;;;1.60;;
43580;SDS011;29175;51.030;4.606;2022-10-16T08:29:45;7.97;;;2.00;;
43580;SDS011;29175;51.030;4.606;2022-10-16T08:32:10;5.22;;;1.73;;
43580;SDS011;29175;51.030;4.606;2022-10-16T08:34:36;7.00;;;2.03;;
43580;SDS011;29175;51.030;4.606;2022-10-16T08:37:02;4.45;;;1.75;;
43580;SDS011;29175;51.030;4.606;2022-10-16T08:39:27;7.45;;;2.00;;
43580;SDS011;29175;51.030;4.606;2022-10-16T08:45:08;6.05;;;2.17;;
43580;SDS011;29175;51.030;4.606;2022-10-16T08:47:47;4.13;;;1.60;;
43580;SDS011;29175;51.030;4.606;2022-10-16T08:50:25;5.45;;;1.63;;
43580;SDS011;29175;51.030;4.606;2022-10-16T08:52:54;5.57;;;1.80;;
43580;SDS011;29175;51.030;4.606;2022-10-16T08:58:21;8.60;;;2.03;;
43580;SDS011;29175;51.030;4.606;2022-10-16T09:00:49;6.10;;;1.98;;
43580;SDS011;29175;51.030;4.606;2022-10-16T09:08:51;5.13;;;1.75;;
43580;SDS011;29175;51.030;4.606;2022-10-16T09:11:30;5.13;;;1.88;;
43580;SDS011;29175;51.030;4.606;2022-10-16T09:15:00;3.45;;;1.60;;
43580;SDS011;29175;51.030;4.606;2022-10-16T09:16:57;5.78;;;1.52;;
43580;SDS011;29175;51.030;4.606;2022-10-16T09:19:37;7.30;;;2.17;;
43580;SDS011;29175;51.030;4.606;2022-10-16T09:22:16;8.52;;;1.73;;
43580;SDS011;29175;51.030;4.606;2022-10-16T09:24:43;5.35;;;1.85;;
43580;SDS011;29175;51.030;4.606;2022-10-16T09:27:12;8.60;;;2.20;;
43580;SDS011;29175;51.030;4.606;2022-10-16T09:29:39;8.90;;;1.85;;
43580;SDS011;29175;51.030;4.606;2022-10-16T09:32:14;4.55;;;1.98;;
43580;SDS011;29175;51.030;4.606;2022-10-16T09:34:49;8.52;;;1.67;;
43580;SDS011;29175;51.030;4.606;2022-10-16T09:37:18;5.78;;;1.90;;
43580;SDS011;29175;51.030;4.606;2022-10-16T09:39:47;5.97;;;1.80;;
43580;SDS011;29175;51.030;4.606;2022-10-16T09:42:18;7.13;;;2.00;;
43580;SDS011;29175;51.030;4.606;2022-10-16T09:44:47;9.18;;;1.95;;
43580;SDS011;29175;51.030;4.606;2022-10-16T09:47:23;7.72;;;2.28;;
43580;SDS011;29175;51.030;4.606;2022-10-16T09:49:52;8.15;;;2.15;;
43580;SDS011;29175;51.030;4.606;2022-10-16T09:52:19;7.95;;;1.80;;
43580;SDS011;29175;51.030;4.606;2022-10-16T09:54:48;11.77;;;1.80;;
43580;SDS011;29175;51.030;4.606;2022-10-16T09:57:26;7.90;;;1.85;;
43580;SDS011;29175;51.030;4.606;2022-10-16T09:59:53;10.93;;;1.75;;
43580;SDS011;29175;51.030;4.606;2022-10-16T10:02:27;6.18;;;1.85;;
43580;SDS011;29175;51.030;4.606;2022-10-16T10:04:55;9.15;;;1.92;;
43580;SDS011;29175;51.030;4.606;2022-10-16T10:07:30;5.28;;;1.67;;
43580;SDS011;29175;51.030;4.606;2022-10-16T10:09:59;10.95;;;1.75;;
43580;SDS011;29175;51.030;4.606;2022-10-16T10:12:30;11.05;;;1.92;;
43580;SDS011;29175;51.030;4.606;2022-10-16T10:15:12;7.72;;;1.65;;
43580;SDS011;29175;51.030;4.606;2022-10-16T10:17:45;10.30;;;2.00;;
43580;SDS011;29175;51.030;4.606;2022-10-16T10:22:49;7.28;;;1.80;;
43580;SDS011;29175;51.030;4.606;2022-10-16T10:25:19;8.75;;;1.70;;
43580;SDS011;29175;51.030;4.606;2022-10-16T10:27:58;10.18;;;2.15;;
43580;SDS011;29175;51.030;4.606;2022-10-16T10:30:42;8.35;;;1.88;;
43580;SDS011;29175;51.030;4.606;2022-10-16T10:46:50;10.75;;;2.15;;
43580;SDS011;29175;51.030;4.606;2022-10-16T10:54:56;9.15;;;1.50;;
43580;SDS011;29175;51.030;4.606;2022-10-16T10:57:50;5.45;;;1.80;;
43580;SDS011;29175;51.030;4.606;2022-10-16T11:06:52;4.25;;;1.50;;
43580;SDS011;29175;51.030;4.606;2022-10-16T11:09:30;5.90;;;1.40;;
43580;SDS011;29175;51.030;4.606;2022-10-16T11:20:34;7.57;;;1.50;;
43580;SDS011;29175;51.030;4.606;2022-10-16T11:23:09;4.43;;;1.65;;
43580;SDS011;29175;51.030;4.606;2022-10-16T11:25:41;6.57;;;1.85;;
43580;SDS011;29175;51.030;4.606;2022-10-16T11:31:13;14.45;;;2.42;;
43580;SDS011;29175;51.030;4.606;2022-10-16T11:33:55;10.63;;;1.73;;
43580;SDS011;29175;51.030;4.606;2022-10-16T11:39:10;7.60;;;1.63;;
43580;SDS011;29175;51.030;4.606;2022-10-16T11:41:54;4.93;;;1.30;;
43580;SDS011;29175;51.030;4.606;2022-10-16T11:49:50;4.65;;;1.88;;
43580;SDS011;29175;51.030;4.606;2022-10-16T11:52:26;7.55;;;1.55;;
43580;SDS011;29175;51.030;4.606;2022-10-16T11:55:02;7.60;;;1.42;;
43580;SDS011;29175;51.030;4.606;2022-10-16T11:57:31;7.80;;;1.70;;
43580;SDS011;29175;51.030;4.606;2022-10-16T12:00:24;5.35;;;1.40;;
43580;SDS011;29175;51.030;4.606;2022-10-16T12:08:45;4.18;;;1.90;;
43580;SDS011;29175;51.030;4.606;2022-10-16T12:16:37;3.22;;;1.27;;
43580;SDS011;29175;51.030;4.606;2022-10-16T12:19:14;8.60;;;1.73;;
43580;SDS011;29175;51.030;4.606;2022-10-16T12:21:41;4.93;;;1.73;;
43580;SDS011;29175;51.030;4.606;2022-10-16T12:26:51;4.35;;;1.35;;
43580;SDS011;29175;51.030;4.606;2022-10-16T12:29:22;5.95;;;1.70;;
43580;SDS011;29175;51.030;4.606;2022-10-16T12:31:59;5.55;;;1.60;;
43580;SDS011;29175;51.030;4.606;2022-10-16T12:37:35;7.43;;;1.67;;
43580;SDS011;29175;51.030;4.606;2022-10-16T12:39:54;5.70;;;1.38;;
43580;SDS011;29175;51.030;4.606;2022-10-16T12:44:54;10.77;;;1.60;;
43580;SDS011;29175;51.030;4.606;2022-10-16T12:49:51;4.82;;;1.85;;
43580;SDS011;29175;51.030;4.606;2022-10-16T12:55:04;5.00;;;1.42;;
43580;SDS011;29175;51.030;4.606;2022-10-16T13:03:00;2.50;;;1.40;;
43580;SDS011;29175;51.030;4.606;2022-10-16T13:14:40;6.90;;;1.70;;
43580;SDS011;29175;51.030;4.606;2022-10-16T13:23:00;5.88;;;1.40;;
43580;SDS011;29175;51.030;4.606;2022-10-16T13:26:08;5.87;;;1.57;;
43580;SDS011;29175;51.030;4.606;2022-10-16T13:28:44;3.88;;;1.40;;
43580;SDS011;29175;51.030;4.606;2022-10-16T13:31:15;8.45;;;1.50;;
43580;SDS011;29175;51.030;4.606;2022-10-16T13:33:49;5.53;;;1.83;;
43580;SDS011;29175;51.030;4.606;2022-10-16T13:38:47;3.42;;;1.20;;
43580;SDS011;29175;51.030;4.606;2022-10-16T13:41:16;4.13;;;1.67;;
43580;SDS011;29175;51.030;4.606;2022-10-16T13:43:46;7.28;;;1.58;;
43580;SDS011;29175;51.030;4.606;2022-10-16T13:46:17;4.75;;;1.52;;
43580;SDS011;29175;51.030;4.606;2022-10-16T13:48:44;2.70;;;1.20;;
43580;SDS011;29175;51.030;4.606;2022-10-16T13:51:21;5.13;;;1.30;;
43580;SDS011;29175;51.030;4.606;2022-10-16T13:53:46;9.27;;;1.75;;
43580;SDS011;29175;51.030;4.606;2022-10-16T13:56:13;3.92;;;1.27;;
43580;SDS011;29175;51.030;4.606;2022-10-16T13:58:41;8.00;;;1.52;;
43580;SDS011;29175;51.030;4.606;2022-10-16T14:01:18;6.80;;;1.42;;
43580;SDS011;29175;51.030;4.606;2022-10-16T14:03:51;5.18;;;1.20;;
43580;SDS011;29175;51.030;4.606;2022-10-16T14:06:19;10.50;;;1.42;;
43580;SDS011;29175;51.030;4.606;2022-10-16T14:08:59;5.00;;;1.27;;
43580;SDS011;29175;51.030;4.606;2022-10-16T14:11:33;3.50;;;1.17;;
43580;SDS011;29175;51.030;4.606;2022-10-16T14:14:11;3.45;;;1.25;;
43580;SDS011;29175;51.030;4.606;2022-10-16T14:16:38;10.82;;;1.23;;
43580;SDS011;29175;51.030;4.606;2022-10-16T14:19:29;4.25;;;1.33;;
43580;SDS011;29175;51.030;4.606;2022-10-16T14:21:55;8.40;;;1.65;;
43580;SDS011;29175;51.030;4.606;2022-10-16T14:24:24;2.72;;;1.55;;
43580;SDS011;29175;51.030;4.606;2022-10-16T14:27:01;4.90;;;1.40;;
43580;SDS011;29175;51.030;4.606;2022-10-16T14:29:28;4.63;;;1.40;;
43580;SDS011;29175;51.030;4.606;2022-10-16T14:34:25;5.57;;;1.45;;
43580;SDS011;29175;51.030;4.606;2022-10-16T14:36:53;6.30;;;1.70;;
43580;SDS011;29175;51.030;4.606;2022-10-16T14:39:21;7.68;;;1.40;;
43580;SDS011;29175;51.030;4.606;2022-10-16T14:41:49;3.10;;;1.63;;
43580;SDS011;29175;51.030;4.606;2022-10-16T14:44:19;4.35;;;1.50;;
43580;SDS011;29175;51.030;4.606;2022-10-16T14:46:52;18.80;;;2.15;;
43580;SDS011;29175;51.030;4.606;2022-10-16T14:49:18;2.80;;;1.45;;
43580;SDS011;29175;51.030;4.606;2022-10-16T14:51:46;5.38;;;1.30;;
43580;SDS011;29175;51.030;4.606;2022-10-16T14:54:14;6.47;;;1.65;;
43580;SDS011;29175;51.030;4.606;2022-10-16T14:56:48;9.15;;;1.60;;
43580;SDS011;29175;51.030;4.606;2022-10-16T15:02:16;6.38;;;1.58;;
43580;SDS011;29175;51.030;4.606;2022-10-16T15:04:48;5.15;;;1.65;;
43580;SDS011;29175;51.030;4.606;2022-10-16T15:07:14;3.60;;;1.58;;
43580;SDS011;29175;51.030;4.606;2022-10-16T15:09:40;6.30;;;1.50;;
43580;SDS011;29175;51.030;4.606;2022-10-16T15:12:05;6.53;;;1.50;;
43580;SDS011;29175;51.030;4.606;2022-10-16T15:14:31;4.47;;;1.27;;
43580;SDS011;29175;51.030;4.606;2022-10-16T15:16:57;5.40;;;1.48;;
43580;SDS011;29175;51.030;4.606;2022-10-16T15:19:22;4.05;;;1.52;;
43580;SDS011;29175;51.030;4.606;2022-10-16T15:21:48;5.40;;;1.65;;
43580;SDS011;29175;51.030;4.606;2022-10-16T15:24:14;6.72;;;1.40;;
43580;SDS011;29175;51.030;4.606;2022-10-16T15:26:40;7.45;;;1.65;;
43580;SDS011;29175;51.030;4.606;2022-10-16T15:29:07;6.03;;;2.10;;
43580;SDS011;29175;51.030;4.606;2022-10-16T15:31:33;8.65;;;2.00;;
43580;SDS011;29175;51.030;4.606;2022-10-16T15:33:59;6.78;;;1.70;;
43580;SDS011;29175;51.030;4.606;2022-10-16T15:36:31;15.48;;;2.00;;
43580;SDS011;29175;51.030;4.606;2022-10-16T15:39:01;5.90;;;1.65;;
43580;SDS011;29175;51.030;4.606;2022-10-16T15:41:31;6.28;;;1.92;;
43580;SDS011;29175;51.030;4.606;2022-10-16T15:43:56;5.47;;;1.70;;
43580;SDS011;29175;51.030;4.606;2022-10-16T15:46:23;4.35;;;1.73;;
43580;SDS011;29175;51.030;4.606;2022-10-16T15:48:50;8.85;;;1.98;;
43580;SDS011;29175;51.030;4.606;2022-10-16T15:51:16;5.53;;;1.77;;
43580;SDS011;29175;51.030;4.606;2022-10-16T15:53:43;7.88;;;2.30;;
43580;SDS011;29175;51.030;4.606;2022-10-16T15:56:11;8.25;;;1.92;;
43580;SDS011;29175;51.030;4.606;2022-10-16T15:58:38;7.05;;;1.80;;
43580;SDS011;29175;51.030;4.606;2022-10-16T16:01:04;7.65;;;2.42;;
43580;SDS011;29175;51.030;4.606;2022-10-16T16:03:31;6.57;;;1.98;;
43580;SDS011;29175;51.030;4.606;2022-10-16T16:05:57;9.65;;;2.40;;
43580;SDS011;29175;51.030;4.606;2022-10-16T16:08:23;10.15;;;2.08;;
43580;SDS011;29175;51.030;4.606;2022-10-16T16:11:02;6.10;;;2.75;;
43580;SDS011;29175;51.030;4.606;2022-10-16T16:13:39;9.10;;;2.20;;
43580;SDS011;29175;51.030;4.606;2022-10-16T16:16:09;6.75;;;2.40;;
43580;SDS011;29175;51.030;4.606;2022-10-16T16:18:37;8.82;;;2.38;;
43580;SDS011;29175;51.030;4.606;2022-10-16T16:21:04;9.77;;;2.63;;
43580;SDS011;29175;51.030;4.606;2022-10-16T16:23:30;9.48;;;2.10;;
43580;SDS011;29175;51.030;4.606;2022-10-16T16:26:05;7.72;;;2.22;;
43580;SDS011;29175;51.030;4.606;2022-10-16T16:28:32;8.27;;;2.42;;
43580;SDS011;29175;51.030;4.606;2022-10-16T16:30:58;13.35;;;3.67;;
43580;SDS011;29175;51.030;4.606;2022-10-16T16:33:24;15.55;;;2.53;;
43580;SDS011;29175;51.030;4.606;2022-10-16T16:35:50;10.70;;;3.05;;
43580;SDS011;29175;51.030;4.606;2022-10-16T16:38:15;8.98;;;2.90;;
43580;SDS011;29175;51.030;4.606;2022-10-16T16:40:41;6.60;;;2.63;;
43580;SDS011;29175;51.030;4.606;2022-10-16T16:43:07;8.88;;;2.90;;
43580;SDS011;29175;51.030;4.606;2022-10-16T16:45:36;10.38;;;2.60;;
43580;SDS011;29175;51.030;4.606;2022-10-16T16:48:02;8.68;;;2.63;;
43580;SDS011;29175;51.030;4.606;2022-10-16T16:50:29;21.73;;;3.58;;
43580;SDS011;29175;51.030;4.606;2022-10-16T16:52:55;16.75;;;3.30;;
43580;SDS011;29175;51.030;4.606;2022-10-16T16:55:21;21.10;;;3.72;;
43580;SDS011;29175;51.030;4.606;2022-10-16T16:57:51;28.58;;;4.00;;
43580;SDS011;29175;51.030;4.606;2022-10-16T17:02:49;11.05;;;2.92;;
43580;SDS011;29175;51.030;4.606;2022-10-16T17:05:15;16.40;;;3.28;;
43580;SDS011;29175;51.030;4.606;2022-10-16T17:07:40;11.52;;;3.35;;